Time;durP1;ratioP1;P1;durP2;ratioP2;P2;SDS_P1;SDS_P2;PMS_P1;PMS_P2;Temp;Humidity;BMP_temperature;BMP_pressure;BME280_temperature;BME280_humidity;BME280_pressure;Samples;Min_cycle;Max_cycle;Signal;HPM_P1;HPM_P2
2022/03/25 00:01:57;;;;;;;25.30;13.43;;;;;;;9.49;64.35;101056.00;5089068;28;20067;-70
2022/03/25 00:04:22;;;;;;;26.70;13.32;;;;;;;9.43;64.59;101057.84;5088963;28;20024;-70
2022/03/25 00:06:48;;;;;;;23.30;12.98;;;;;;;9.40;64.77;101061.44;5070066;28;20027;-70
2022/03/25 00:09:13;;;;;;;23.48;11.75;;;;;;;9.22;65.37;101053.66;5087692;28;20032;-70
2022/03/25 00:11:38;;;;;;;21.00;10.73;;;;;;;9.23;65.77;101055.41;5089373;28;20039;-70
2022/03/25 00:14:04;;;;;;;21.13;12.13;;;;;;;9.22;65.91;101056.31;5089077;28;20024;-70
2022/03/25 00:16:29;;;;;;;21.88;10.80;;;;;;;9.19;66.32;101053.72;5092126;28;20051;-70
2022/03/25 00:18:55;;;;;;;23.58;10.63;;;;;;;9.15;66.47;101055.50;5105321;28;20110;-69
2022/03/25 00:21:21;;;;;;;24.35;11.80;;;;;;;9.11;66.23;101058.19;5100687;28;20044;-69
2022/03/25 00:23:46;;;;;;;21.58;10.27;;;;;;;9.10;66.27;101049.38;5088240;28;20436;-70
2022/03/25 00:26:12;;;;;;;21.48;10.25;;;;;;;9.03;66.63;101044.13;5088480;28;20030;-70
2022/03/25 00:28:38;;;;;;;21.38;10.98;;;;;;;9.02;66.83;101047.69;5089254;28;20028;-70
2022/03/25 00:31:08;;;;;;;23.17;10.63;;;;;;;8.94;66.96;101030.97;5088357;28;20437;-70
2022/03/25 00:33:34;;;;;;;22.23;10.68;;;;;;;8.96;66.39;101037.13;5088127;28;20031;-70
2022/03/25 00:36:01;;;;;;;21.92;10.40;;;;;;;9.05;65.90;101050.31;5086015;28;20059;-69
2022/03/25 00:38:27;;;;;;;19.65;9.93;;;;;;;9.04;66.30;101045.91;5087055;28;20471;-69
2022/03/25 00:40:54;;;;;;;23.88;10.45;;;;;;;9.03;66.72;101041.47;5088986;28;20036;-69
2022/03/25 00:43:20;;;;;;;25.55;11.32;;;;;;;9.01;67.85;101051.25;5070155;28;20451;-69
2022/03/25 00:45:46;;;;;;;23.55;11.07;;;;;;;8.97;67.58;101041.53;5107069;28;20712;-69
2022/03/25 00:48:13;;;;;;;20.95;11.23;;;;;;;8.92;67.55;101035.41;5088900;28;20154;-69
2022/03/25 00:50:39;;;;;;;20.38;11.32;;;;;;;8.94;68.00;101037.16;5104960;28;20395;-69
2022/03/25 00:53:04;;;;;;;23.60;11.27;;;;;;;8.95;68.02;101038.00;5104643;28;20032;-69
2022/03/25 00:55:30;;;;;;;19.60;11.55;;;;;;;8.88;68.33;101036.34;5089530;28;20024;-69
2022/03/25 00:57:57;;;;;;;24.33;12.02;;;;;;;8.79;68.28;101036.41;5108448;28;20412;-69
2022/03/25 01:00:22;;;;;;;22.73;11.02;;;;;;;8.77;68.64;101043.50;5106615;28;20031;-69
2022/03/25 01:02:47;;;;;;;22.35;10.38;;;;;;;8.66;68.35;101035.66;5088306;28;20024;-69
2022/03/25 01:05:13;;;;;;;23.40;11.73;;;;;;;8.69;67.77;101026.78;5088315;28;20048;-69
2022/03/25 01:07:38;;;;;;;19.50;10.55;;;;;;;8.74;68.21;101035.56;5087905;28;20518;-69
2022/03/25 01:10:04;;;;;;;20.92;10.63;;;;;;;8.62;68.57;101014.44;5086951;28;20028;-69
2022/03/25 01:12:29;;;;;;;23.35;11.20;;;;;;;8.67;68.13;101025.91;5070374;28;20028;-70
2022/03/25 01:14:55;;;;;;;22.15;10.93;;;;;;;8.54;67.69;101016.28;5069897;28;20020;-69
2022/03/25 01:17:20;;;;;;;21.30;10.60;;;;;;;8.53;67.84;101023.41;5098614;28;20031;-69
2022/03/25 01:19:46;;;;;;;19.50;10.70;;;;;;;8.58;68.54;101032.16;5110343;28;20028;-70
2022/03/25 01:22:12;;;;;;;25.73;10.98;;;;;;;8.50;69.01;101030.50;5112714;28;20194;-70
2022/03/25 01:24:37;;;;;;;25.20;11.82;;;;;;;8.45;69.71;101030.50;5090330;28;20103;-69
2022/03/25 01:27:04;;;;;;;23.15;10.68;;;;;;;8.40;70.30;101028.81;5110829;28;20080;-69
2022/03/25 01:29:29;;;;;;;23.67;10.70;;;;;;;8.46;70.68;101028.75;5093951;28;20043;-69
2022/03/25 01:31:55;;;;;;;21.70;11.13;;;;;;;8.46;70.59;101031.38;5112195;28;20035;-69
2022/03/25 01:34:20;;;;;;;21.70;10.25;;;;;;;8.44;69.88;101039.34;5093964;28;20051;-69
2022/03/25 01:36:46;;;;;;;25.08;11.30;;;;;;;8.36;69.70;101035.00;5112060;28;20029;-69
2022/03/25 01:39:12;;;;;;;25.00;11.48;;;;;;;8.24;69.82;101013.91;5111976;28;20024;-69
2022/03/25 01:41:38;;;;;;;20.88;10.70;;;;;;;8.40;68.80;101032.31;5112267;28;20560;-69
2022/03/25 01:44:04;;;;;;;25.67;12.23;;;;;;;8.40;67.99;101008.44;5104780;28;20055;-69
2022/03/25 01:46:30;;;;;;;25.73;11.95;;;;;;;8.40;69.07;101016.41;5091112;28;20032;-69
2022/03/25 01:48:56;;;;;;;27.00;12.30;;;;;;;8.42;69.27;101019.06;5094125;28;20038;-69
2022/03/25 01:51:32;;;;;;;29.98;11.07;;;;;;;8.40;69.05;101027.00;5091738;28;20011;-69
2022/03/25 01:54:25;;;;;;;24.75;12.43;;;;;;;8.41;69.75;101025.25;5092717;28;20110;-69
2022/03/25 01:56:55;;;;;;;27.77;11.63;;;;;;;8.32;70.42;101027.97;5088958;28;20035;-70
2022/03/25 01:59:21;;;;;;;24.05;11.30;;;;;;;8.25;69.97;101026.25;5111770;28;20272;-69
2022/03/25 02:01:48;;;;;;;26.92;13.20;;;;;;;7.94;70.84;100973.44;5081810;28;20011;-69
2022/03/25 02:04:13;;;;;;;36.30;13.95;;;;;;;8.21;70.75;101013.88;5091686;28;20023;-69
2022/03/25 02:06:39;;;;;;;30.80;14.43;;;;;;;8.15;70.22;101021.88;5091134;28;20097;-69
2022/03/25 02:09:04;;;;;;;33.42;15.55;;;;;;;8.09;70.88;101008.69;5072779;28;20032;-69
2022/03/25 02:11:31;;;;;;;28.08;13.50;;;;;;;8.14;70.39;101028.94;5090752;28;20020;-69
2022/03/25 02:13:57;;;;;;;33.53;15.55;;;;;;;8.13;70.88;101023.66;5072418;28;20066;-70
2022/03/25 02:16:41;;;;;;;33.70;14.85;;;;;;;8.10;71.01;101019.25;5092295;28;20432;-70
2022/03/25 02:19:08;;;;;;;26.20;12.05;;;;;;;8.12;70.64;101029.84;5098123;28;20060;-69
2022/03/25 02:21:35;;;;;;;29.90;14.10;;;;;;;8.00;70.39;101005.19;5090632;28;20060;-69
2022/03/25 02:24:01;;;;;;;31.00;14.50;;;;;;;7.95;71.13;101024.66;5097280;28;20057;-69
2022/03/25 02:26:27;;;;;;;28.23;12.35;;;;;;;7.89;71.89;101014.97;5110952;28;20495;-69
2022/03/25 02:28:53;;;;;;;23.98;12.65;;;;;;;7.81;71.72;101016.78;5111429;28;20073;-69
2022/03/25 02:31:19;;;;;;;25.48;13.20;;;;;;;7.75;72.63;101027.41;5110900;28;20573;-69
2022/03/25 02:33:44;;;;;;;23.05;12.93;;;;;;;7.66;74.43;101019.50;5110931;28;20027;-69
2022/03/25 02:36:10;;;;;;;24.85;11.50;;;;;;;7.55;74.21;101002.81;5092991;28;20023;-69
2022/03/25 02:38:36;;;;;;;27.52;13.10;;;;;;;7.48;74.30;100998.41;5111046;28;20034;-69
2022/03/25 02:41:02;;;;;;;26.65;11.57;;;;;;;7.54;74.16;101016.94;5109789;28;20034;-69
2022/03/25 02:43:28;;;;;;;22.88;10.45;;;;;;;7.49;73.95;101018.72;5100642;28;20032;-69
2022/03/25 02:45:53;;;;;;;25.55;12.85;;;;;;;7.56;73.36;101024.88;5070525;28;20510;-69
2022/03/25 02:48:19;;;;;;;27.42;12.63;;;;;;;7.52;73.18;101026.63;5090524;28;20023;-69
2022/03/25 02:50:46;;;;;;;24.80;10.95;;;;;;;7.44;73.09;101017.84;5099250;28;20025;-69
2022/03/25 02:53:13;;;;;;;24.98;12.40;;;;;;;7.28;73.74;101002.91;5110885;28;20092;-69
2022/03/25 02:55:39;;;;;;;25.55;12.68;;;;;;;7.23;73.74;101002.03;5110788;28;20047;-69
2022/03/25 02:58:05;;;;;;;22.35;10.15;;;;;;;7.27;73.89;101013.50;5110598;28;20032;-69
2022/03/25 03:00:30;;;;;;;23.73;10.48;;;;;;;7.29;73.94;101017.91;5106942;28;20020;-69
2022/03/25 03:03:00;;;;;;;23.75;10.82;;;;;;;7.32;74.19;101017.91;5090333;28;20028;-69
2022/03/25 03:05:25;;;;;;;22.63;11.80;;;;;;;7.31;74.68;101020.53;5090141;28;20115;-69
2022/03/25 03:07:51;;;;;;;26.10;11.23;;;;;;;7.24;75.10;101009.09;5088726;28;20554;-69
2022/03/25 03:10:16;;;;;;;23.25;11.63;;;;;;;7.37;74.90;101016.13;5088860;28;20023;-69
2022/03/25 03:12:43;;;;;;;21.55;11.98;;;;;;;7.30;74.53;101013.47;5090341;28;20095;-69
2022/03/25 03:15:09;;;;;;;26.38;10.18;;;;;;;7.31;73.77;101026.72;5090114;28;20868;-69
2022/03/25 03:17:35;;;;;;;23.33;10.95;;;;;;;7.28;73.91;101025.84;5102445;28;20024;-69
2022/03/25 03:20:00;;;;;;;23.63;11.07;;;;;;;7.24;74.49;101024.09;5109799;28;20016;-69
2022/03/25 03:22:26;;;;;;;23.85;11.50;;;;;;;7.20;74.73;101022.34;5106821;28;20082;-69
2022/03/25 03:24:51;;;;;;;22.17;9.77;;;;;;;7.20;74.13;101028.50;5110329;28;20433;-69
2022/03/25 03:27:17;;;;;;;25.60;12.05;;;;;;;7.14;74.90;101007.38;5110039;28;20031;-69
2022/03/25 03:29:43;;;;;;;21.80;11.25;;;;;;;7.20;74.63;101020.56;5109624;28;20092;-69
2022/03/25 03:32:09;;;;;;;23.17;11.70;;;;;;;7.14;74.40;100999.44;5092054;28;20020;-69
2022/03/25 03:34:34;;;;;;;22.45;10.65;;;;;;;7.17;75.21;101012.66;5110028;28;20015;-69
2022/03/25 03:37:00;;;;;;;25.52;12.95;;;;;;;7.17;75.27;101015.28;5091360;28;20034;-69
2022/03/25 03:39:25;;;;;;;29.70;12.77;;;;;;;7.18;75.08;101009.09;5102045;28;20039;-69
2022/03/25 03:41:51;;;;;;;28.95;13.52;;;;;;;7.21;75.38;101016.16;5088885;28;20024;-69
2022/03/25 03:44:17;;;;;;;21.55;10.98;;;;;;;7.21;74.66;101010.88;5089263;28;20024;-69
2022/03/25 03:46:42;;;;;;;26.42;12.57;;;;;;;7.21;74.67;101001.19;5092028;28;20040;-69
2022/03/25 03:49:08;;;;;;;23.42;11.63;;;;;;;7.26;73.95;101010.00;5088228;28;20786;-69
2022/03/25 03:51:33;;;;;;;26.98;11.70;;;;;;;7.23;73.61;101009.97;5089291;28;20413;-69
2022/03/25 03:54:00;;;;;;;23.17;12.80;;;;;;;7.10;74.17;100996.81;5073997;28;20036;-69
2022/03/25 03:56:27;;;;;;;28.55;11.50;;;;;;;7.00;75.56;101013.59;5090808;28;20012;-69
2022/03/25 03:58:53;;;;;;;25.38;11.68;;;;;;;6.93;74.97;101015.38;5109155;28;20482;-69
2022/03/25 04:01:19;;;;;;;24.20;12.30;;;;;;;6.93;74.97;101011.84;5095743;28;20016;-69
2022/03/25 04:03:44;;;;;;;22.13;11.95;;;;;;;6.69;74.92;100999.53;5087732;28;20039;-69
2022/03/25 04:06:10;;;;;;;22.98;11.73;;;;;;;6.66;75.08;101003.06;5089487;28;20487;-69
2022/03/25 04:08:36;;;;;;;20.55;11.00;;;;;;;6.57;76.51;101012.78;5089313;28;20150;-68
2022/03/25 04:11:02;;;;;;;25.27;11.48;;;;;;;6.47;76.02;101016.31;5088541;28;20111;-68
2022/03/25 04:13:28;;;;;;;24.55;10.32;;;;;;;6.35;76.70;101026.84;5091528;28;20150;-68
2022/03/25 04:15:53;;;;;;;22.13;11.98;;;;;;;6.23;77.35;101027.72;5071030;28;20131;-68
2022/03/25 04:18:19;;;;;;;19.33;11.15;;;;;;;6.12;76.62;101031.25;5107589;28;20027;-69
2022/03/25 04:20:44;;;;;;;22.50;10.25;;;;;;;6.07;76.49;101031.25;5090550;28;20051;-69
2022/03/25 04:23:10;;;;;;;20.95;11.05;;;;;;;6.01;76.96;101025.06;5106448;28;20099;-69
2022/03/25 04:25:35;;;;;;;23.42;10.82;;;;;;;6.02;78.27;101032.09;5109180;28;20071;-69
2022/03/25 04:28:01;;;;;;;20.67;11.40;;;;;;;5.97;78.38;101032.09;5109123;28;20467;-69
2022/03/25 04:30:29;;;;;;;24.52;11.15;;;;;;;5.87;78.58;101038.22;5089357;28;20068;-69
2022/03/25 04:32:57;;;;;;;24.58;12.05;;;;;;;5.83;79.37;101038.22;5109196;28;20016;-69
2022/03/25 04:35:24;;;;;;;25.92;11.82;;;;;;;5.79;79.09;101028.50;5104089;28;20066;-69
2022/03/25 04:37:50;;;;;;;19.15;10.05;;;;;;;5.79;79.66;101029.38;5088672;28;20023;-69
2022/03/25 04:40:20;;;;;;;21.70;11.18;;;;;;;5.75;79.52;101042.56;5088457;28;20024;-68
2022/03/25 04:42:48;;;;;;;23.10;12.02;;;;;;;5.67;79.38;101039.03;5091621;28;20430;-68
2022/03/25 04:45:14;;;;;;;23.42;11.43;;;;;;;5.60;79.55;101045.16;5091178;28;20029;-68
2022/03/25 04:47:40;;;;;;;22.60;11.40;;;;;;;5.66;79.36;101042.53;5088750;28;20032;-68
2022/03/25 04:50:06;;;;;;;22.38;11.15;;;;;;;5.63;79.59;101039.88;5088416;28;20043;-68
2022/03/25 04:52:32;;;;;;;21.98;11.50;;;;;;;5.64;79.30;101039.00;5088718;28;20394;-69
2022/03/25 04:54:58;;;;;;;20.38;11.90;;;;;;;5.53;79.43;101027.53;5090116;28;20031;-69
2022/03/25 04:57:23;;;;;;;23.77;11.35;;;;;;;5.68;79.18;101035.50;5095306;28;20039;-69
2022/03/25 04:59:49;;;;;;;23.85;12.05;;;;;;;5.75;78.96;101034.66;5092360;28;20051;-69
2022/03/25 05:02:14;;;;;;;25.45;12.32;;;;;;;5.71;78.93;101036.41;5099675;28;20078;-69
2022/03/25 05:04:40;;;;;;;21.23;12.43;;;;;;;5.72;78.54;101024.94;5074314;28;20024;-69
2022/03/25 05:07:05;;;;;;;28.67;11.57;;;;;;;5.84;78.80;101037.34;5092620;28;20395;-68
2022/03/25 05:09:31;;;;;;;20.60;12.73;;;;;;;5.85;79.76;101041.75;5073799;28;20053;-68
2022/03/25 05:11:56;;;;;;;31.15;13.10;;;;;;;5.81;79.41;101021.47;5092333;28;20024;-68
2022/03/25 05:14:22;;;;;;;31.67;13.20;;;;;;;5.92;79.32;101036.47;5102358;28;20031;-69
2022/03/25 05:16:52;;;;;;;41.22;12.82;;;;;;;5.83;79.49;101043.50;5106449;28;20024;-69
2022/03/25 05:19:21;;;;;;;27.30;11.90;;;;;;;5.72;79.49;101047.81;5090842;28;20095;-69
2022/03/25 05:21:47;;;;;;;21.88;11.45;;;;;;;5.66;79.64;101053.97;5091199;28;20044;-69
2022/03/25 05:24:12;;;;;;;22.75;11.07;;;;;;;5.55;80.08;101050.41;5094200;28;20016;-69
2022/03/25 05:26:38;;;;;;;21.05;11.68;;;;;;;5.53;80.25;101051.28;5074199;28;20024;-68
2022/03/25 05:29:05;;;;;;;28.67;12.40;;;;;;;5.52;80.01;101057.44;5091331;28;20055;-68
2022/03/25 05:31:31;;;;;;;24.88;10.95;;;;;;;5.44;80.03;101059.16;5091764;28;20031;-68
2022/03/25 05:33:56;;;;;;;22.38;11.73;;;;;;;5.46;79.14;101060.03;5092139;28;20024;-68
2022/03/25 05:36:22;;;;;;;34.35;12.85;;;;;;;5.52;79.62;101054.81;5092213;28;20137;-69
2022/03/25 05:38:48;;;;;;;24.52;13.02;;;;;;;5.58;79.51;101060.09;5091562;28;20085;-69
2022/03/25 05:41:14;;;;;;;27.35;13.10;;;;;;;5.67;78.88;101058.38;5090948;28;20667;-69
2022/03/25 05:43:40;;;;;;;26.08;12.15;;;;;;;5.70;79.76;101071.56;5090747;28;20024;-69
2022/03/25 05:46:05;;;;;;;25.50;11.77;;;;;;;5.71;79.45;101068.06;5073137;28;20023;-69
2022/03/25 05:48:31;;;;;;;28.73;12.85;;;;;;;5.68;79.58;101072.44;5073369;28;20062;-68
2022/03/25 05:50:56;;;;;;;26.42;12.85;;;;;;;5.67;79.80;101074.19;5091490;28;20043;-68
2022/03/25 05:53:22;;;;;;;22.65;11.48;;;;;;;5.71;80.27;101072.47;5093325;28;20024;-68
2022/03/25 05:55:47;;;;;;;23.02;12.45;;;;;;;5.76;79.64;101076.00;5091365;28;20063;-68
2022/03/25 05:58:13;;;;;;;24.30;13.68;;;;;;;5.85;79.84;101078.72;5091585;28;20111;-68
2022/03/25 06:00:39;;;;;;;23.15;12.55;;;;;;;5.96;79.72;101080.50;5098754;28;20099;-68
2022/03/25 06:03:05;;;;;;;24.75;11.25;;;;;;;6.13;79.42;101081.41;5089997;28;20020;-69
2022/03/25 06:05:31;;;;;;;22.90;13.52;;;;;;;6.30;79.95;101077.06;5074660;28;20659;-69
2022/03/25 06:07:56;;;;;;;26.52;13.80;;;;;;;6.59;80.16;101079.72;5091282;28;20055;-69
2022/03/25 06:10:22;;;;;;;23.75;12.43;;;;;;;7.20;79.09;101086.72;5091205;28;20024;-69
2022/03/25 06:12:47;;;;;;;18.98;11.57;;;;;;;7.81;77.20;101079.44;5073120;28;20111;-69
2022/03/25 06:15:13;;;;;;;25.52;12.50;;;;;;;8.61;72.56;101079.88;5094285;28;20057;-69
2022/03/25 06:17:47;;;;;;;26.08;13.57;;;;;;;9.45;66.81;101072.88;5091105;28;20034;-69
2022/03/25 06:20:23;;;;;;;26.98;13.15;;;;;;;10.90;59.09;101081.47;5091110;28;20403;-69
2022/03/25 06:22:49;;;;;;;23.42;12.02;;;;;;;12.13;55.39;101079.06;5091096;28;20036;-69
2022/03/25 06:25:16;;;;;;;21.95;11.68;;;;;;;12.97;51.38;101073.47;5090594;28;20020;-69
2022/03/25 06:27:55;;;;;;;24.10;11.27;;;;;;;13.72;48.38;101083.94;5090570;28;20075;-69
2022/03/25 06:30:24;;;;;;;25.73;12.23;;;;;;;14.34;46.66;101064.25;5090630;28;20066;-69
2022/03/25 06:32:50;;;;;;;21.10;11.10;;;;;;;14.90;45.42;101081.16;5090738;28;20054;-69
2022/03/25 06:35:16;;;;;;;23.13;12.88;;;;;;;15.34;43.91;101080.50;5093144;28;20490;-69
2022/03/25 06:37:42;;;;;;;23.25;12.02;;;;;;;16.03;43.62;101079.81;5090727;28;20036;-69
2022/03/25 06:40:08;;;;;;;25.42;11.45;;;;;;;16.71;42.03;101069.94;5090464;28;20060;-69
2022/03/25 06:42:35;;;;;;;23.98;11.25;;;;;;;16.85;42.09;101083.69;5090310;28;20035;-69
2022/03/25 06:45:05;;;;;;;23.42;12.88;;;;;;;17.40;40.88;101085.78;5089977;28;20039;-69
2022/03/25 06:47:31;;;;;;;20.02;11.10;;;;;;;17.68;40.15;101094.41;5092447;27;20032;-68
2022/03/25 06:49:56;;;;;;;26.98;11.85;;;;;;;18.09;39.36;101092.53;5095583;28;20386;-68
2022/03/25 06:52:22;;;;;;;22.80;12.07;;;;;;;18.35;38.99;101076.91;5090740;28;20031;-68
2022/03/25 06:54:48;;;;;;;22.33;11.93;;;;;;;18.69;38.40;101102.28;5089026;28;20036;-68
2022/03/25 06:57:14;;;;;;;23.65;11.95;;;;;;;19.09;38.59;101094.81;5090657;28;20386;-69
2022/03/25 06:59:41;;;;;;;28.00;11.98;;;;;;;19.63;37.58;101102.84;5091988;28;20103;-68
2022/03/25 07:02:09;;;;;;;27.73;12.70;;;;;;;20.19;36.34;101099.81;5097041;28;20028;-68
2022/03/25 07:04:35;;;;;;;24.42;11.32;;;;;;;20.21;36.45;101097.91;5090469;28;20110;-68
2022/03/25 07:07:04;;;;;;;21.67;12.00;;;;;;;20.69;35.94;101105.97;5089413;28;20024;-68
2022/03/25 07:09:29;;;;;;;27.38;11.48;;;;;;;21.03;35.84;101099.53;5089611;28;20791;-68
2022/03/25 07:11:56;;;;;;;20.95;11.00;;;;;;;21.28;35.16;101117.91;5089376;28;20031;-68
2022/03/25 07:14:21;;;;;;;20.00;10.70;;;;;;;21.60;34.42;101114.13;5099560;28;20100;-68
2022/03/25 07:16:47;;;;;;;25.23;12.50;;;;;;;21.84;34.67;101116.28;5103244;28;20024;-68
2022/03/25 07:19:12;;;;;;;24.63;11.73;;;;;;;21.84;34.26;101119.00;5089681;28;20060;-68
2022/03/25 07:21:38;;;;;;;20.95;11.27;;;;;;;22.05;34.38;101119.47;5089468;28;20449;-68
2022/03/25 07:24:04;;;;;;;24.00;11.98;;;;;;;22.07;34.23;101114.84;5089033;28;20409;-68
2022/03/25 07:26:29;;;;;;;25.17;11.93;;;;;;;22.43;34.00;101112.53;5090165;28;20077;-68
2022/03/25 07:28:55;;;;;;;28.13;11.93;;;;;;;22.55;33.58;101109.06;5067634;28;20036;-68
2022/03/25 07:31:20;;;;;;;22.55;11.00;;;;;;;22.62;32.87;101113.09;5088458;28;20107;-68
2022/03/25 07:33:46;;;;;;;21.02;10.02;;;;;;;22.57;33.05;101117.94;5089634;28;20023;-68
2022/03/25 07:36:11;;;;;;;23.63;11.88;;;;;;;22.68;32.48;101120.88;5071442;28;20118;-68
2022/03/25 07:38:37;;;;;;;18.48;10.98;;;;;;;22.65;32.67;101118.31;5089752;28;20471;-69
2022/03/25 07:41:03;;;;;;;21.50;11.10;;;;;;;22.55;32.89;101119.91;5089173;28;20020;-69
2022/03/25 07:43:30;;;;;;;22.73;11.38;;;;;;;22.30;33.13;101127.81;5096160;28;20503;-69
2022/03/25 07:45:56;;;;;;;19.15;10.90;;;;;;;22.30;34.27;101129.66;5091681;28;20523;-69
2022/03/25 07:48:22;;;;;;;20.33;11.75;;;;;;;22.11;34.11;101136.22;5089325;28;20028;-68
2022/03/25 07:50:47;;;;;;;21.42;12.15;;;;;;;22.16;33.52;101136.81;5087618;28;20030;-68
2022/03/25 07:53:13;;;;;;;19.80;12.23;;;;;;;22.23;33.41;101128.28;5099013;28;20066;-68
2022/03/25 07:55:38;;;;;;;24.92;13.07;;;;;;;22.31;34.00;101134.97;5109574;28;20482;-68
2022/03/25 07:58:04;;;;;;;21.38;11.50;;;;;;;21.98;32.75;101137.09;5109265;28;20027;-68
2022/03/25 08:00:29;;;;;;;24.77;13.05;;;;;;;22.01;33.38;101139.59;5105769;28;20058;-68
2022/03/25 08:02:55;;;;;;;25.15;12.95;;;;;;;21.77;33.03;101138.41;5070837;28;20031;-68
2022/03/25 08:05:21;;;;;;;22.58;12.25;;;;;;;21.55;32.49;101136.09;5088967;28;20020;-68
2022/03/25 08:07:55;;;;;;;25.08;12.90;;;;;;;21.47;33.38;101132.09;5088322;28;20023;-68
2022/03/25 08:10:27;;;;;;;26.80;14.38;;;;;;;21.75;33.42;101133.03;5090546;28;20369;-68
2022/03/25 08:12:56;;;;;;;32.17;13.80;;;;;;;21.41;32.96;101137.88;5087815;28;20078;-68
2022/03/25 08:15:24;;;;;;;28.73;14.65;;;;;;;20.79;34.18;101131.53;5107225;28;20019;-68
2022/03/25 08:17:57;;;;;;;30.42;14.68;;;;;;;20.48;33.93;101134.22;5095185;28;20024;-68
2022/03/25 08:20:25;;;;;;;33.85;16.30;;;;;;;20.76;33.72;101133.53;5088564;28;20112;-68
2022/03/25 08:22:51;;;;;;;28.00;13.48;;;;;;;20.99;35.10;101129.56;5089144;28;20133;-68
2022/03/25 08:28:01;;;;;;;26.52;15.90;;;;;;;21.15;34.28;101135.84;5094504;28;20034;-68
2022/03/25 08:30:31;;;;;;;30.45;15.05;;;;;;;21.25;33.80;101135.19;5113500;28;20080;-68
2022/03/25 08:33:01;;;;;;;30.50;15.63;;;;;;;21.50;32.95;101127.38;5097351;28;20028;-68
2022/03/25 08:35:27;;;;;;;26.83;15.27;;;;;;;21.43;33.93;101138.66;5075665;28;20035;-68
2022/03/25 08:37:54;;;;;;;30.30;15.18;;;;;;;21.59;33.30;101142.19;5093094;28;20047;-68
2022/03/25 08:40:21;;;;;;;32.92;15.48;;;;;;;21.72;33.97;101140.47;5073313;28;20672;-68
2022/03/25 08:42:47;;;;;;;34.35;15.98;;;;;;;21.80;34.13;101143.63;5091234;28;20055;-68
2022/03/25 08:45:14;;;;;;;33.80;16.10;;;;;;;21.68;32.30;101134.38;5111044;28;20058;-68
2022/03/25 08:47:41;;;;;;;33.53;16.00;;;;;;;22.25;32.83;101143.50;5114064;28;20414;-68
2022/03/25 08:50:09;;;;;;;29.45;15.15;;;;;;;22.23;32.36;101140.00;5112067;28;20099;-68
2022/03/25 08:52:35;;;;;;;28.15;15.32;;;;;;;21.82;32.15;101139.88;5111990;28;20051;-68
2022/03/25 08:55:01;;;;;;;29.40;14.73;;;;;;;21.89;31.81;101135.81;5109562;28;20523;-68
2022/03/25 08:57:27;;;;;;;37.55;15.90;;;;;;;22.11;32.45;101136.22;5113834;28;20102;-68
2022/03/25 08:59:53;;;;;;;31.52;14.50;;;;;;;22.68;31.90;101131.72;5113200;28;20129;-68
2022/03/25 09:02:18;;;;;;;27.58;15.02;;;;;;;22.98;31.05;101126.13;5095529;28;20032;-68
2022/03/25 09:04:46;;;;;;;30.65;14.80;;;;;;;23.09;31.55;101131.69;5090854;28;20042;-68
2022/03/25 09:07:12;;;;;;;30.00;14.82;;;;;;;23.37;30.37;101124.38;5090966;28;20024;-68
2022/03/25 09:09:37;;;;;;;27.90;14.35;;;;;;;24.02;31.57;101127.13;5093005;28;20109;-68
2022/03/25 09:12:03;;;;;;;30.98;15.63;;;;;;;24.02;30.61;101129.84;5093263;28;20036;-68
2022/03/25 09:14:29;;;;;;;30.35;15.05;;;;;;;24.18;30.88;101134.09;5093390;28;20483;-68
2022/03/25 09:16:54;;;;;;;31.88;16.10;;;;;;;24.57;29.84;101128.50;5098560;28;20077;-68
2022/03/25 09:19:19;;;;;;;27.25;14.38;;;;;;;24.79;29.52;101129.66;5112368;28;20016;-68
2022/03/25 09:21:45;;;;;;;31.95;15.30;;;;;;;24.76;29.61;101124.47;5111371;28;20073;-68
2022/03/25 09:24:10;;;;;;;29.95;15.27;;;;;;;24.95;29.66;101128.44;5108026;28;20024;-68
2022/03/25 09:26:35;;;;;;;29.42;14.45;;;;;;;25.05;29.42;101128.59;5093093;28;20019;-68
2022/03/25 09:29:01;;;;;;;30.33;15.50;;;;;;;24.88;29.63;101124.41;5091236;28;20024;-68
2022/03/25 09:31:26;;;;;;;29.15;15.18;;;;;;;24.73;30.33;101122.81;5092957;28;20081;-68
2022/03/25 09:35:08;;;;;;;34.97;15.77;;;;;;;24.89;29.58;101122.56;5095684;28;20016;-68
2022/03/25 09:36:37;;;;;;;28.90;15.60;;;;;;;24.92;29.22;101125.06;5091615;28;20198;-68
2022/03/25 09:39:03;;;;;;;28.90;15.50;;;;;;;25.19;29.35;101126.56;5092603;28;20099;-68
2022/03/25 09:41:30;;;;;;;33.60;16.67;;;;;;;25.43;28.61;101122.03;5090921;28;20028;-68
2022/03/25 09:43:56;;;;;;;29.52;13.90;;;;;;;25.51;28.73;101121.44;5091553;28;20024;-68
2022/03/25 09:46:21;;;;;;;27.25;15.05;;;;;;;25.80;28.13;101112.75;5094352;28;20498;-68
2022/03/25 09:48:47;;;;;;;28.45;14.80;;;;;;;25.78;27.86;101114.72;5092000;28;20080;-68
2022/03/25 09:51:13;;;;;;;31.77;16.40;;;;;;;25.75;27.80;101114.97;5092559;28;20028;-69
2022/03/25 09:53:39;;;;;;;30.52;15.32;;;;;;;25.84;27.51;101114.25;5091092;28;20086;-69
2022/03/25 09:56:06;;;;;;;31.40;16.15;;;;;;;26.05;27.53;101121.75;5092385;28;20021;-69
2022/03/25 09:58:32;;;;;;;28.15;15.10;;;;;;;26.22;27.46;101107.66;5092338;28;20020;-69
2022/03/25 10:00:59;;;;;;;28.70;15.73;;;;;;;26.30;27.44;101100.59;5098665;28;20852;-69
2022/03/25 10:03:36;;;;;;;32.42;16.35;;;;;;;26.50;27.90;101101.69;5092001;28;20102;-69
2022/03/25 10:06:04;;;;;;;26.20;13.75;;;;;;;26.67;27.28;101098.50;5091056;28;20113;-69
2022/03/25 10:08:33;;;;;;;29.92;16.63;;;;;;;26.88;27.06;101094.00;5057150;28;20028;-69
2022/03/25 10:11:37;;;;;;;31.83;14.75;;;;;;;27.18;26.67;101094.16;5094225;28;20054;-69
2022/03/25 10:14:19;;;;;;;31.13;14.80;;;;;;;27.23;27.50;101097.38;5021333;28;20037;-69
2022/03/25 10:16:49;;;;;;;26.23;15.20;;;;;;;27.23;25.71;101094.66;5014283;28;20505;-69
2022/03/25 10:19:23;;;;;;;31.13;15.63;;;;;;;26.90;27.25;101094.75;5091781;28;20383;-69
2022/03/25 10:22:08;;;;;;;;;;;;;;;27.08;26.52;101087.75;4648209;28;20500;-69
2022/03/25 10:25:09;;;;;;;30.27;15.50;;;;;;;26.97;26.19;101095.94;5095489;28;19926;-69
2022/03/25 10:27:35;;;;;;;30.58;15.80;;;;;;;27.41;25.07;101090.38;5109996;28;20348;-69
2022/03/25 10:30:03;;;;;;;28.50;15.32;;;;;;;27.38;25.46;101090.63;5110457;28;20027;-69
2022/03/25 10:32:28;;;;;;;28.80;15.13;;;;;;;27.18;25.65;101072.31;5112074;28;20055;-69
2022/03/25 10:35:00;;;;;;;30.20;16.17;;;;;;;26.75;26.57;101085.97;5111726;28;20066;-70
2022/03/25 10:37:27;;;;;;;25.90;15.07;;;;;;;27.00;27.53;101057.47;5111527;28;20024;-70
2022/03/25 10:39:52;;;;;;;34.00;15.95;;;;;;;27.21;26.30;101074.78;5095506;28;20078;-70
2022/03/25 10:42:18;;;;;;;30.33;14.50;;;;;;;27.45;26.14;101075.44;5090156;28;20020;-70
2022/03/25 10:44:43;;;;;;;32.47;15.65;;;;;;;27.89;25.71;101080.69;5073033;28;20027;-70
2022/03/25 10:47:15;;;;;;;28.00;14.80;;;;;;;27.88;25.47;101073.47;5091232;28;20036;-70
2022/03/25 10:49:43;;;;;;;28.98;14.98;;;;;;;28.03;26.70;101077.63;5091501;28;20036;-70
2022/03/25 10:52:36;;;;;;;31.48;15.95;;;;;;;28.07;25.70;101079.06;5091537;28;20039;-69
2022/03/25 10:55:21;;;;;;;29.90;15.68;;;;;;;28.24;25.06;101081.19;5089907;28;20089;-69
2022/03/25 10:57:48;;;;;;;28.33;15.63;;;;;;;28.21;23.88;101078.72;5092065;28;20043;-69
2022/03/25 11:00:13;;;;;;;30.73;15.38;;;;;;;27.73;25.38;101080.25;5091459;28;20032;-69
2022/03/25 11:02:39;;;;;;;36.50;15.70;;;;;;;27.82;24.40;101041.19;5094913;28;20032;-69
2022/03/25 11:05:06;;;;;;;29.92;14.68;;;;;;;28.23;24.57;101060.31;5072795;28;20544;-69
2022/03/25 11:07:32;;;;;;;29.95;14.30;;;;;;;28.85;24.50;101070.19;5090278;28;20027;-69
2022/03/25 11:10:00;;;;;;;32.17;15.95;;;;;;;28.71;24.14;101068.72;5089371;28;20031;-70
2022/03/25 11:12:26;;;;;;;36.47;15.80;;;;;;;28.51;23.36;101066.06;5090645;28;20053;-70
2022/03/25 11:14:51;;;;;;;31.05;15.02;;;;;;;28.37;24.77;101062.66;5104682;28;20041;-70
2022/03/25 11:17:20;;;;;;;28.02;15.43;;;;;;;28.32;24.41;101061.31;5110386;28;20035;-70